Time;durP1;ratioP1;P1;durP2;ratioP2;P2;SDS_P1;SDS_P2;PMS_P1;PMS_P2;Temp;Humidity;BMP_temperature;BMP_pressure;BME280_temperature;BME280_humidity;BME280_pressure;Samples;Min_cycle;Max_cycle;Signal;HPM_P1;HPM_P2
2023/01/15 00:01:26;;;;;;;0.75;0.50;;;;;;;7.49;86.59;99641.00;6094105;23;20010;-69
2023/01/15 00:03:54;;;;;;;1.08;0.47;;;;;;;7.45;86.94;99647.88;6095782;23;20333;-68
2023/01/15 00:06:21;;;;;;;1.58;0.50;;;;;;;7.45;87.24;99651.31;6092655;23;20022;-68
2023/01/15 00:08:47;;;;;;;1.65;0.50;;;;;;;7.46;86.39;99657.31;6092005;23;20028;-69
2023/01/15 00:11:13;;;;;;;1.67;0.70;;;;;;;7.44;86.21;99646.22;6090678;23;20488;-68
2023/01/15 00:13:40;;;;;;;2.30;0.50;;;;;;;7.41;85.49;99659.09;6090089;23;20132;-68
2023/01/15 00:16:09;;;;;;;2.03;0.57;;;;;;;7.37;85.98;99654.88;6091530;23;20010;-68
2023/01/15 00:18:34;;;;;;;1.77;0.40;;;;;;;7.31;86.95;99658.38;6090888;23;20023;-68
2023/01/15 00:21:05;;;;;;;0.95;0.50;;;;;;;7.24;87.47;99667.00;6090825;23;20077;-68
2023/01/15 00:29:00;;;;;;;1.42;0.68;;;;;;;7.14;87.24;99678.25;6090474;23;20025;-68
2023/01/15 00:31:27;;;;;;;0.77;0.43;;;;;;;7.10;87.37;99692.00;6090569;23;20011;-68
2023/01/15 00:33:52;;;;;;;1.17;0.70;;;;;;;7.07;86.94;99692.03;6089934;23;20421;-68
2023/01/15 00:36:18;;;;;;;2.17;0.60;;;;;;;7.03;88.12;99692.94;6089939;23;20092;-68
2023/01/15 00:38:43;;;;;;;1.77;0.90;;;;;;;7.01;88.63;99693.81;6064749;23;20464;-68
2023/01/15 00:41:09;;;;;;;2.22;1.35;;;;;;;7.04;87.24;99704.06;6063733;23;20022;-67
2023/01/15 00:43:34;;;;;;;1.20;0.50;;;;;;;7.07;85.33;99706.59;6090689;23;20081;-68
2023/01/15 00:46:00;;;;;;;0.93;0.50;;;;;;;7.04;87.35;99699.78;6065174;23;20010;-67
2023/01/15 00:48:25;;;;;;;2.33;0.60;;;;;;;7.00;87.80;99699.84;6092045;23;20391;-67
2023/01/15 00:50:50;;;;;;;1.40;0.60;;;;;;;6.99;86.29;99698.13;6092457;23;20042;-68
2023/01/15 00:53:16;;;;;;;1.80;0.75;;;;;;;6.96;87.45;99700.75;6092821;23;20024;-67
2023/01/15 00:55:41;;;;;;;2.47;0.60;;;;;;;6.95;86.53;99704.16;6093125;23;20014;-68
2023/01/15 00:58:07;;;;;;;2.33;0.60;;;;;;;6.96;86.62;99700.75;6092426;23;20435;-67
2023/01/15 01:00:32;;;;;;;2.40;0.52;;;;;;;6.94;86.81;99708.47;6091941;23;20045;-67
2023/01/15 01:02:57;;;;;;;2.58;0.50;;;;;;;6.95;86.01;99701.59;6090909;23;20018;-68
2023/01/15 01:05:23;;;;;;;1.60;0.60;;;;;;;6.93;86.30;99704.19;6090700;23;20023;-67
2023/01/15 01:07:48;;;;;;;3.65;0.50;;;;;;;6.89;84.65;99708.50;6092621;23;20436;-67
2023/01/15 01:10:15;;;;;;;2.60;0.50;;;;;;;6.89;85.98;99700.81;6092452;23;20018;-68
2023/01/15 01:12:40;;;;;;;0.73;0.47;;;;;;;6.85;85.18;99704.25;6093007;23;20019;-67
2023/01/15 01:15:08;;;;;;;1.65;0.50;;;;;;;6.84;83.83;99689.72;6090035;23;20098;-67
2023/01/15 01:17:38;;;;;;;0.57;0.40;;;;;;;6.84;83.76;99688.88;6092045;23;20019;-66
2023/01/15 01:20:04;;;;;;;1.08;0.43;;;;;;;6.81;85.65;99701.75;6091924;23;20089;-67
2023/01/15 01:22:32;;;;;;;2.47;0.60;;;;;;;6.77;86.18;99695.78;6092583;23;20014;-68
2023/01/15 01:24:58;;;;;;;2.95;0.55;;;;;;;6.78;85.87;99700.06;6092999;23;20017;-67
2023/01/15 01:27:23;;;;;;;3.45;0.60;;;;;;;6.76;86.75;99699.22;6092554;23;20019;-67
2023/01/15 01:29:49;;;;;;;0.95;0.60;;;;;;;6.74;86.25;99693.25;6093486;23;20022;-67
2023/01/15 01:32:14;;;;;;;1.88;0.65;;;;;;;6.73;86.94;99708.69;6092177;23;20014;-67
2023/01/15 01:34:40;;;;;;;2.22;0.60;;;;;;;6.76;85.24;99704.34;6094740;23;20010;-67
2023/01/15 01:37:05;;;;;;;0.52;0.43;;;;;;;6.79;83.77;99698.34;6095702;23;20446;-67
2023/01/15 01:39:30;;;;;;;2.15;0.40;;;;;;;6.82;83.57;99696.59;6094442;23;20034;-67
2023/01/15 01:41:56;;;;;;;1.10;0.35;;;;;;;6.79;83.33;99698.34;6092993;23;20025;-67
2023/01/15 01:44:33;;;;;;;5.35;0.65;;;;;;;6.79;83.41;99701.75;6092875;23;20033;-66
2023/01/15 01:47:05;;;;;;;1.92;0.45;;;;;;;6.80;82.20;99695.75;6092763;23;20580;-66
2023/01/15 01:49:31;;;;;;;1.15;0.50;;;;;;;6.82;81.71;99688.06;6092929;23;20025;-68
2023/01/15 01:52:04;;;;;;;2.08;0.50;;;;;;;6.82;82.24;99682.91;6092259;23;20010;-68
2023/01/15 01:54:32;;;;;;;2.83;0.55;;;;;;;6.81;81.70;99681.19;6093230;23;20018;-68
2023/01/15 01:56:58;;;;;;;2.72;0.63;;;;;;;6.80;81.49;99690.63;6091379;23;20014;-68
2023/01/15 01:59:25;;;;;;;2.85;0.50;;;;;;;6.80;82.89;99694.91;6091783;23;20070;-68
2023/01/15 02:01:51;;;;;;;2.92;0.50;;;;;;;6.80;81.93;99685.47;6091497;23;20014;-68
2023/01/15 02:04:20;;;;;;;2.90;0.55;;;;;;;6.79;81.72;99670.94;6092201;23;20629;-68
2023/01/15 02:06:46;;;;;;;0.52;0.35;;;;;;;6.78;81.71;99671.81;6091749;23;20248;-68
2023/01/15 02:09:11;;;;;;;0.75;0.40;;;;;;;6.77;81.29;99675.25;6090225;23;20018;-68
2023/01/15 02:11:37;;;;;;;1.88;0.60;;;;;;;6.74;82.07;99667.56;6090877;23;20150;-68
2023/01/15 02:14:19;;;;;;;2.15;0.50;;;;;;;6.71;82.44;99666.75;6089956;23;20029;-68
2023/01/15 02:16:47;;;;;;;0.75;0.38;;;;;;;6.70;81.39;99673.63;6089489;23;20353;-68
2023/01/15 02:19:18;;;;;;;1.75;0.40;;;;;;;6.68;81.93;99669.34;6091260;23;20069;-68
2023/01/15 02:21:55;;;;;;;0.98;0.40;;;;;;;6.70;81.59;99668.50;6091942;23;20700;-68
2023/01/15 02:24:29;;;;;;;2.05;0.43;;;;;;;6.68;81.16;99662.50;6090768;23;20022;-68
2023/01/15 02:27:00;;;;;;;2.50;0.60;;;;;;;6.67;81.39;99670.22;6090868;23;20073;-68
2023/01/15 02:29:49;;;;;;;1.75;0.60;;;;;;;6.66;81.71;99671.09;6089763;23;20053;-68
2023/01/15 02:32:39;;;;;;;1.15;0.80;;;;;;;6.63;81.70;99671.97;6088748;23;20049;-68
2023/01/15 02:35:33;;;;;;;0.73;0.50;;;;;;;6.61;82.10;99671.16;6090759;23;20073;-68
2023/01/15 02:38:03;;;;;;;0.50;0.30;;;;;;;6.61;80.72;99663.44;6087120;23;20489;-68
2023/01/15 02:40:30;;;;;;;0.90;0.40;;;;;;;6.60;81.13;99666.88;6090447;23;20018;-68
2023/01/15 02:42:58;;;;;;;0.55;0.30;;;;;;;6.60;81.55;99666.00;6091810;23;20459;-69
2023/01/15 02:45:29;;;;;;;1.73;0.40;;;;;;;6.57;81.33;99666.03;6091140;23;20354;-69
2023/01/15 02:48:01;;;;;;;1.70;0.77;;;;;;;6.56;81.37;99657.47;6091421;23;20041;-69
2023/01/15 02:50:31;;;;;;;2.42;0.30;;;;;;;6.55;81.51;99668.63;6090149;23;20018;-69
2023/01/15 02:53:02;;;;;;;1.10;0.30;;;;;;;6.55;81.13;99668.63;6090232;23;20157;-69
2023/01/15 02:55:32;;;;;;;1.85;0.60;;;;;;;6.55;81.45;99680.63;6091521;23;20021;-69
2023/01/15 02:58:01;;;;;;;0.95;0.32;;;;;;;6.53;81.48;99665.22;6091512;23;20014;-69
2023/01/15 03:00:32;;;;;;;1.08;0.40;;;;;;;6.53;81.96;99657.50;6091363;23;20014;-69
2023/01/15 03:03:06;;;;;;;0.57;0.40;;;;;;;6.52;81.99;99660.09;6089640;23;20458;-68
2023/01/15 03:05:38;;;;;;;1.15;0.40;;;;;;;6.53;81.77;99670.34;6090445;23;20455;-69
2023/01/15 03:08:06;;;;;;;0.40;0.35;;;;;;;6.55;80.39;99666.06;6089469;23;20081;-69
2023/01/15 03:10:42;;;;;;;0.95;0.30;;;;;;;6.56;80.48;99665.19;6089271;23;20007;-68
2023/01/15 03:13:15;;;;;;;1.48;0.50;;;;;;;6.57;80.74;99677.16;6090898;23;20014;-69
2023/01/15 03:18:36;;;;;;;2.35;0.40;;;;;;;6.55;80.79;99680.63;6093021;23;20096;-69
2023/01/15 03:21:08;;;;;;;1.90;0.43;;;;;;;6.55;80.60;99680.63;6094395;23;20034;-69
2023/01/15 03:23:38;;;;;;;0.60;0.30;;;;;;;6.55;80.82;99673.78;6093193;23;20026;-69
2023/01/15 03:26:03;;;;;;;0.63;0.50;;;;;;;6.55;80.53;99681.47;6091600;23;20018;-69
2023/01/15 03:28:34;;;;;;;1.45;0.50;;;;;;;6.55;80.91;99678.91;6089552;23;20010;-69
2023/01/15 03:31:00;;;;;;;1.75;0.40;;;;;;;6.59;80.34;99679.69;6091441;23;20084;-69
2023/01/15 03:33:26;;;;;;;2.90;0.50;;;;;;;6.61;79.92;99673.72;6091006;23;20071;-69
2023/01/15 03:35:58;;;;;;;2.67;0.50;;;;;;;6.64;80.38;99677.97;6089544;23;20731;-69
2023/01/15 03:38:35;;;;;;;2.47;0.50;;;;;;;6.68;80.27;99679.63;6090325;23;20018;-69
2023/01/15 03:41:26;;;;;;;1.15;0.55;;;;;;;6.70;79.61;99676.19;6089226;23;20097;-69
2023/01/15 03:43:57;;;;;;;2.33;0.55;;;;;;;6.72;79.97;99678.72;6090738;23;20018;-68
2023/01/15 03:46:30;;;;;;;1.50;0.55;;;;;;;6.75;79.19;99660.72;6091305;23;20013;-70
2023/01/15 03:49:00;;;;;;;4.85;0.60;;;;;;;6.80;78.37;99646.97;6089212;23;20018;-69
2023/01/15 03:51:44;;;;;;;2.22;0.50;;;;;;;6.80;78.69;99638.41;6090334;23;20488;-69
2023/01/15 03:54:23;;;;;;;1.48;0.63;;;;;;;6.81;76.92;99617.84;6091138;23;20089;-69
2023/01/15 03:57:06;;;;;;;1.45;0.52;;;;;;;6.81;77.11;99628.13;6091466;23;20024;-70
2023/01/15 03:59:36;;;;;;;3.42;0.45;;;;;;;6.81;76.31;99622.13;6091969;23;20075;-69
2023/01/15 04:02:10;;;;;;;2.78;0.70;;;;;;;6.82;76.06;99613.56;6091741;23;20018;-70
2023/01/15 04:04:37;;;;;;;1.75;0.60;;;;;;;6.83;75.52;99602.41;6091304;23;20041;-69
2023/01/15 04:07:02;;;;;;;3.13;0.50;;;;;;;6.82;75.97;99611.00;6091765;23;20351;-69
2023/01/15 04:09:28;;;;;;;1.38;0.52;;;;;;;6.82;76.21;99621.28;6092356;23;20021;-69
2023/01/15 04:11:58;;;;;;;2.28;0.50;;;;;;;6.80;75.77;99611.00;6091424;23;20025;-70
2023/01/15 04:14:23;;;;;;;2.55;0.50;;;;;;;6.79;76.24;99611.03;6091312;23;20015;-70
2023/01/15 04:16:49;;;;;;;2.13;0.75;;;;;;;6.78;76.15;99611.91;6089925;23;20134;-69
2023/01/15 04:19:14;;;;;;;5.22;0.65;;;;;;;6.75;77.04;99623.06;6091431;23;20038;-70
2023/01/15 04:21:40;;;;;;;1.38;0.57;;;;;;;6.75;77.57;99629.91;6092349;23;20014;-70
2023/01/15 04:24:05;;;;;;;4.32;0.60;;;;;;;6.75;77.22;99633.31;6092650;23;20018;-69
2023/01/15 04:26:31;;;;;;;3.50;0.80;;;;;;;6.72;77.68;99625.66;6093514;23;20015;-70
2023/01/15 04:28:56;;;;;;;4.03;0.82;;;;;;;6.71;78.10;99626.50;6093099;23;20014;-69
2023/01/15 04:31:22;;;;;;;1.55;0.60;;;;;;;6.69;78.37;99628.25;6094327;23;20010;-69
2023/01/15 04:33:47;;;;;;;1.95;0.52;;;;;;;6.67;78.25;99626.59;6095082;23;20050;-69
2023/01/15 04:36:13;;;;;;;2.75;0.93;;;;;;;6.66;78.24;99625.72;6094084;23;20018;-69
2023/01/15 04:38:39;;;;;;;2.78;1.02;;;;;;;6.66;78.52;99633.44;6094035;23;20101;-70
2023/01/15 04:44:07;;;;;;;2.33;0.70;;;;;;;6.62;79.47;99634.31;6093000;23;20109;-69
2023/01/15 04:46:44;;;;;;;3.75;0.93;;;;;;;6.60;79.39;99643.75;6092426;23;20078;-69
2023/01/15 04:49:12;;;;;;;4.03;1.13;;;;;;;6.60;78.62;99641.19;6092485;23;20344;-70
2023/01/15 04:51:38;;;;;;;1.83;0.80;;;;;;;6.61;78.17;99624.09;6090683;23;20097;-69
2023/01/15 04:54:06;;;;;;;3.67;0.85;;;;;;;6.62;77.59;99613.78;6090812;23;20034;-69
2023/01/15 04:56:36;;;;;;;3.88;0.70;;;;;;;6.64;77.66;99619.75;6092470;23;20085;-69
2023/01/15 04:59:02;;;;;;;2.33;0.60;;;;;;;6.65;77.20;99626.59;6092039;23;20457;-69
2023/01/15 05:01:27;;;;;;;7.72;1.30;;;;;;;6.68;77.26;99630.81;6092418;23;20006;-70
2023/01/15 05:03:53;;;;;;;5.90;0.70;;;;;;;6.68;76.48;99628.25;6091330;23;20019;-70
2023/01/15 05:06:18;;;;;;;3.05;0.60;;;;;;;6.71;75.97;99616.25;6092201;23;20065;-68
2023/01/15 05:08:44;;;;;;;4.65;0.90;;;;;;;6.75;76.15;99638.47;6089223;23;20188;-70
2023/01/15 05:11:10;;;;;;;3.92;0.60;;;;;;;6.76;75.27;99618.78;6092066;23;20161;-70
2023/01/15 05:13:36;;;;;;;2.30;0.70;;;;;;;6.77;74.50;99615.31;6090616;23;20014;-70
2023/01/15 05:16:07;;;;;;;6.28;0.80;;;;;;;6.81;73.15;99614.44;6090966;23;20010;-70
2023/01/15 05:18:32;;;;;;;2.65;0.82;;;;;;;6.84;73.14;99597.28;6082552;23;20018;-70
2023/01/15 05:20:58;;;;;;;2.42;0.70;;;;;;;6.90;72.71;99594.63;6090104;23;20026;-70
2023/01/15 05:23:23;;;;;;;3.05;0.90;;;;;;;6.89;72.86;99589.50;6089773;23;20026;-70
2023/01/15 05:25:48;;;;;;;1.75;0.70;;;;;;;6.91;71.94;99588.59;6084626;23;20046;-68
2023/01/15 05:28:14;;;;;;;3.60;0.70;;;;;;;6.91;71.72;99578.31;6091430;23;20378;-70
2023/01/15 05:30:39;;;;;;;2.72;0.70;;;;;;;6.90;71.48;99586.94;6091239;23;20015;-70
2023/01/15 05:33:04;;;;;;;1.48;0.68;;;;;;;6.90;72.21;99601.47;6091342;23;20019;-70
2023/01/15 05:35:30;;;;;;;1.75;0.73;;;;;;;6.90;71.15;99597.19;6092057;23;20033;-70
2023/01/15 05:37:56;;;;;;;3.50;0.65;;;;;;;6.90;71.50;99594.63;6091339;23;20049;-70
2023/01/15 05:40:21;;;;;;;3.72;0.55;;;;;;;6.88;71.50;99606.63;6092436;23;20014;-70
2023/01/15 05:42:46;;;;;;;5.68;0.70;;;;;;;6.83;72.35;99621.25;6092467;23;20013;-70
2023/01/15 05:45:12;;;;;;;7.57;1.15;;;;;;;6.84;71.61;99612.69;6091624;23;21445;-70
2023/01/15 05:47:37;;;;;;;2.45;0.70;;;;;;;6.81;72.88;99627.28;6090832;23;20029;-70
2023/01/15 05:50:03;;;;;;;3.13;0.73;;;;;;;6.78;72.44;99627.31;6090725;23;20509;-70
2023/01/15 05:52:28;;;;;;;6.50;1.50;;;;;;;6.74;72.87;99634.19;6091520;23;20006;-70
2023/01/15 05:54:53;;;;;;;4.30;0.80;;;;;;;6.73;73.00;99635.03;6092373;23;20065;-70
2023/01/15 05:57:19;;;;;;;2.42;0.65;;;;;;;6.70;73.33;99644.53;6091152;23;20014;-70
2023/01/15 05:59:45;;;;;;;4.78;0.82;;;;;;;6.66;73.66;99658.25;6091744;23;20185;-70
2023/01/15 06:02:10;;;;;;;3.05;0.80;;;;;;;6.64;73.96;99673.69;6092694;23;20011;-70
2023/01/15 06:04:35;;;;;;;4.95;0.80;;;;;;;6.64;74.89;99680.53;6093672;23;20025;-70
2023/01/15 06:07:01;;;;;;;6.97;0.98;;;;;;;6.63;74.40;99678.81;6092849;23;20014;-70
2023/01/15 06:09:28;;;;;;;4.88;0.60;;;;;;;6.60;74.97;99695.09;6091253;23;20458;-70
2023/01/15 06:11:54;;;;;;;3.88;0.88;;;;;;;6.59;75.09;99695.09;6090872;23;20030;-70
2023/01/15 06:14:20;;;;;;;7.07;1.15;;;;;;;6.55;75.61;99690.88;6090278;23;20461;-70
2023/01/15 06:16:45;;;;;;;3.90;1.25;;;;;;;6.51;76.34;99687.50;6091679;23;20007;-69
2023/01/15 06:19:12;;;;;;;1.63;0.90;;;;;;;6.49;76.36;99694.38;6091135;23;20017;-69
2023/01/15 06:21:37;;;;;;;3.97;0.73;;;;;;;6.47;76.82;99682.41;6091802;23;20185;-70
2023/01/15 06:24:03;;;;;;;2.25;0.45;;;;;;;6.44;77.13;99669.59;6091059;23;20026;-70
2023/01/15 06:26:29;;;;;;;6.38;1.13;;;;;;;6.44;76.37;99678.13;6091520;23;20042;-70
2023/01/15 06:28:54;;;;;;;3.55;0.98;;;;;;;6.45;77.13;99679.84;6092266;23;20395;-70
2023/01/15 06:31:21;;;;;;;1.30;0.57;;;;;;;6.48;77.21;99689.22;6092270;23;20049;-69
2023/01/15 06:33:47;;;;;;;1.13;0.50;;;;;;;6.46;76.69;99688.41;6091039;23;20061;-70
2023/01/15 06:36:20;;;;;;;0.90;0.43;;;;;;;6.46;76.94;99678.13;6092503;23;20021;-70
2023/01/15 06:38:46;;;;;;;2.08;0.40;;;;;;;6.39;78.59;99692.72;6093014;23;20022;-70
2023/01/15 06:49:33;;;;;;;0.65;0.40;;;;;;;6.05;79.52;99711.84;6091593;23;20021;-70
2023/01/15 06:51:59;;;;;;;1.10;0.30;;;;;;;5.99;80.28;99717.84;6089987;23;20003;-70
2023/01/15 06:54:25;;;;;;;0.30;0.30;;;;;;;5.96;79.98;99724.72;6091384;23;20041;-70
2023/01/15 06:56:51;;;;;;;0.63;0.43;;;;;;;5.92;80.71;99717.91;6091998;23;20041;-70
2023/01/15 06:59:17;;;;;;;0.73;0.30;;;;;;;5.91;79.99;99718.75;6091890;23;20093;-70
2023/01/15 07:01:43;;;;;;;0.45;0.30;;;;;;;5.91;80.60;99731.56;6093037;23;20018;-70
2023/01/15 07:04:08;;;;;;;0.65;0.40;;;;;;;5.88;81.02;99727.31;6093037;23;20067;-70
2023/01/15 07:06:33;;;;;;;2.83;0.40;;;;;;;5.89;80.48;99723.03;6092926;23;20105;-70
2023/01/15 07:08:59;;;;;;;0.30;0.30;;;;;;;5.88;80.79;99735.00;6089942;23;20354;-70
2023/01/15 07:11:24;;;;;;;1.23;0.52;;;;;;;5.89;80.58;99726.47;6091951;23;20081;-70
2023/01/15 07:13:50;;;;;;;2.28;0.40;;;;;;;5.91;80.16;99729.88;6088705;23;20118;-70
2023/01/15 07:16:28;;;;;;;0.28;0.20;;;;;;;5.92;79.98;99723.03;6090267;23;20014;-69
2023/01/15 07:18:54;;;;;;;0.88;0.40;;;;;;;5.95;79.69;99729.00;6088087;23;20109;-69
2023/01/15 07:21:20;;;;;;;0.43;0.40;;;;;;;5.99;78.70;99719.56;6085562;23;20733;-70
2023/01/15 07:23:46;;;;;;;0.30;0.30;;;;;;;6.01;78.58;99723.81;6088063;23;20104;-70
2023/01/15 07:26:11;;;;;;;1.60;0.43;;;;;;;6.07;77.57;99717.78;6090319;23;20106;-70
2023/01/15 07:28:37;;;;;;;1.48;0.40;;;;;;;6.08;78.20;99728.03;6089475;23;20395;-70
2023/01/15 07:31:02;;;;;;;3.13;0.50;;;;;;;6.10;77.82;99740.88;6089608;23;20006;-69
2023/01/15 07:33:28;;;;;;;1.38;0.50;;;;;;;6.09;78.08;99751.97;6095692;23;20041;-69
2023/01/15 07:35:54;;;;;;;0.95;0.40;;;;;;;6.10;78.29;99756.25;6090289;23;20081;-69
2023/01/15 07:38:19;;;;;;;2.47;0.55;;;;;;;6.13;76.84;99740.84;6091279;23;20026;-67
2023/01/15 07:49:44;;;;;;;2.05;0.60;;;;;;;6.12;77.76;99749.41;6088484;23;20050;-68
2023/01/15 07:51:41;;;;;;;2.78;1.13;;;;;;;6.13;76.74;99753.66;6091492;23;20022;-68
2023/01/15 07:54:06;;;;;;;2.05;0.57;;;;;;;6.13;76.64;99749.41;6066171;23;20018;-68
2023/01/15 07:56:32;;;;;;;3.75;1.58;;;;;;;6.12;76.99;99768.22;6092326;23;20034;-67
2023/01/15 07:58:57;;;;;;;1.02;0.70;;;;;;;6.11;76.73;99760.53;6090916;23;20014;-68
2023/01/15 08:01:23;;;;;;;2.42;0.50;;;;;;;6.10;76.68;99754.56;6090481;23;20077;-68
2023/01/15 08:03:48;;;;;;;0.35;0.35;;;;;;;6.10;76.71;99764.81;6091032;23;20019;-67
2023/01/15 08:06:13;;;;;;;0.75;0.50;;;;;;;6.12;75.52;99757.94;6091881;23;20014;-67
2023/01/15 08:08:39;;;;;;;0.95;0.70;;;;;;;6.14;75.29;99766.47;6091006;23;20105;-68
2023/01/15 08:16:35;;;;;;;0.77;0.50;;;;;;;6.20;75.52;99796.41;6090354;23;20501;-67
2023/01/15 08:19:01;;;;;;;0.35;0.32;;;;;;;6.22;75.75;99805.78;6091606;23;20071;-66
2023/01/15 08:21:26;;;;;;;1.08;0.40;;;;;;;6.20;76.22;99807.50;6090689;23;20631;-67
2023/01/15 08:23:51;;;;;;;1.73;0.40;;;;;;;6.20;76.81;99809.22;6090573;23;20485;-67
2023/01/15 08:26:17;;;;;;;1.02;0.30;;;;;;;6.22;76.16;99799.78;6090517;23;20327;-68
2023/01/15 08:28:42;;;;;;;3.00;0.40;;;;;;;6.27;76.31;99803.19;6090518;23;20083;-67
2023/01/15 08:31:07;;;;;;;2.15;0.50;;;;;;;6.35;75.36;99796.28;6091357;23;20010;-67
2023/01/15 08:33:33;;;;;;;1.38;0.60;;;;;;;6.40;75.80;99809.09;6091423;23;20023;-67
2023/01/15 08:35:58;;;;;;;0.82;0.40;;;;;;;6.44;75.90;99821.88;6092341;23;20026;-68
2023/01/15 08:38:26;;;;;;;1.85;0.63;;;;;;;6.44;76.88;99834.72;6091515;23;20105;-67
2023/01/15 08:40:59;;;;;;;0.55;0.40;;;;;;;6.42;77.13;99844.16;6090685;23;20077;-67
2023/01/15 08:43:26;;;;;;;1.27;0.68;;;;;;;6.38;77.95;99862.16;6090886;23;20073;-67
2023/01/15 08:45:51;;;;;;;3.53;1.02;;;;;;;6.37;79.19;99861.28;6091876;23;20002;-70
2023/01/15 08:48:17;;;;;;;4.25;0.75;;;;;;;6.30;79.94;99855.34;6091009;23;20037;-68
2023/01/15 08:50:42;;;;;;;3.67;0.68;;;;;;;6.25;81.10;99856.22;6091395;23;20025;-67
2023/01/15 08:53:08;;;;;;;3.33;0.45;;;;;;;6.23;79.71;99845.09;6090721;23;20021;-67
2023/01/15 08:55:33;;;;;;;2.47;0.93;;;;;;;6.21;80.98;99855.38;6091315;23;21094;-67
2023/01/15 08:57:58;;;;;;;7.93;1.10;;;;;;;6.20;79.40;99850.28;6091461;23;20010;-67
2023/01/15 09:00:24;;;;;;;0.55;0.50;;;;;;;6.21;80.30;99852.81;6091822;23;20473;-67
2023/01/15 09:02:50;;;;;;;1.55;0.60;;;;;;;6.21;80.08;99842.56;6089847;23;20014;-68
2023/01/15 09:05:16;;;;;;;2.08;0.80;;;;;;;6.21;81.12;99852.81;6089682;23;20110;-67
2023/01/15 09:07:41;;;;;;;4.95;1.25;;;;;;;6.24;80.56;99844.25;6090601;23;20627;-67
2023/01/15 09:10:07;;;;;;;2.33;0.73;;;;;;;6.26;80.05;99845.09;6093468;23;20487;-68
2023/01/15 09:12:32;;;;;;;2.65;1.25;;;;;;;6.29;79.66;99843.34;6093143;23;20406;-67
2023/01/15 09:15:00;;;;;;;7.88;0.90;;;;;;;6.35;78.74;99838.19;6093817;23;20033;-68
2023/01/15 09:17:26;;;;;;;3.13;1.05;;;;;;;6.38;78.91;99839.88;6095691;23;20070;-68
2023/01/15 09:19:51;;;;;;;3.47;0.93;;;;;;;6.46;78.20;99840.69;6095251;23;20450;-68
2023/01/15 09:22:16;;;;;;;4.20;1.05;;;;;;;6.51;77.85;99832.97;6093690;23;20010;-68
2023/01/15 09:24:42;;;;;;;1.55;0.70;;;;;;;6.56;77.58;99826.06;6094253;23;20049;-68
2023/01/15 09:27:10;;;;;;;6.00;1.10;;;;;;;6.63;76.28;99831.16;6094896;23;20034;-68
2023/01/15 09:29:36;;;;;;;4.90;1.02;;;;;;;6.68;75.87;99821.69;6094992;23;20022;-68
2023/01/15 09:32:01;;;;;;;4.63;1.15;;;;;;;6.73;75.83;99814.81;6094783;23;20509;-68
2023/01/15 09:34:26;;;;;;;2.75;0.70;;;;;;;6.75;75.42;99813.09;6094174;23;20082;-68
2023/01/15 09:36:52;;;;;;;4.03;1.05;;;;;;;6.79;74.37;99806.22;6094007;23;20291;-68
2023/01/15 09:39:17;;;;;;;4.20;0.88;;;;;;;6.76;74.64;99829.34;6092140;23;20030;-68
2023/01/15 09:42:14;;;;;;;3.40;1.33;;;;;;;6.73;74.65;99826.81;6093270;23;20022;-68
2023/01/15 09:44:54;;;;;;;4.03;1.15;;;;;;;6.62;74.70;99821.75;6094403;23;20454;-68
2023/01/15 09:47:31;;;;;;;2.22;0.90;;;;;;;6.53;75.33;99818.38;6092302;23;20054;-68
2023/01/15 09:50:08;;;;;;;3.33;0.90;;;;;;;6.49;74.27;99812.44;6090979;23;20536;-68
2023/01/15 09:52:33;;;;;;;4.43;1.40;;;;;;;6.48;74.87;99817.56;6092142;23;20006;-68
2023/01/15 09:55:08;;;;;;;2.13;1.13;;;;;;;6.46;74.83;99825.31;6092045;23;20465;-68
2023/01/15 09:57:35;;;;;;;7.25;2.25;;;;;;;6.54;75.07;99820.97;6092129;23;20407;-68
2023/01/15 10:00:05;;;;;;;7.03;1.13;;;;;;;6.62;74.87;99820.88;6090557;23;20026;-68
2023/01/15 10:02:42;;;;;;;6.95;1.30;;;;;;;6.66;74.00;99813.16;6091701;23;20074;-69
2023/01/15 10:05:30;;;;;;;5.82;0.85;;;;;;;6.64;73.78;99811.47;6094071;23;20070;-69
2023/01/15 10:08:13;;;;;;;2.85;1.10;;;;;;;6.66;73.04;99810.59;6092465;23;20073;-69
2023/01/15 10:10:45;;;;;;;6.93;1.70;;;;;;;6.70;73.31;99819.13;6091958;23;20101;-68
2023/01/15 10:13:29;;;;;;;4.05;1.10;;;;;;;6.67;73.18;99814.03;6091517;23;20011;-70
2023/01/15 10:15:55;;;;;;;7.10;1.80;;;;;;;6.71;72.16;99813.13;6063142;23;20086;-69
2023/01/15 10:18:27;;;;;;;5.43;1.27;;;;;;;6.74;72.10;99819.09;6087855;23;20078;-69
2023/01/15 10:21:07;;;;;;;3.80;1.00;;;;;;;6.80;71.76;99807.91;6091560;23;20414;-69
2023/01/15 10:23:43;;;;;;;4.03;1.05;;;;;;;6.85;72.00;99821.59;6091416;23;20469;-69
2023/01/15 10:26:17;;;;;;;6.32;2.40;;;;;;;6.92;70.79;99815.50;6092452;23;20354;-70
2023/01/15 10:28:57;;;;;;;3.92;1.08;;;;;;;7.01;71.30;99833.41;6090166;23;20022;-69
2023/01/15 10:31:46;;;;;;;6.63;1.20;;;;;;;7.07;70.17;99817.06;6092381;23;20010;-69
2023/01/15 10:34:30;;;;;;;8.02;1.73;;;;;;;7.12;70.57;99838.47;6092328;23;20069;-69
2023/01/15 10:37:11;;;;;;;7.15;1.17;;;;;;;7.21;69.58;99823.00;6092420;23;20343;-70
2023/01/15 10:39:45;;;;;;;7.63;2.38;;;;;;;7.29;69.70;99819.47;6092446;23;20018;-70
2023/01/15 10:42:32;;;;;;;2.17;1.60;;;;;;;7.37;68.51;99802.25;6090611;23;20529;-69
2023/01/15 10:45:06;;;;;;;6.60;0.90;;;;;;;7.44;68.30;99803.03;6090616;23;20069;-69
2023/01/15 10:47:36;;;;;;;8.73;1.60;;;;;;;7.50;67.54;99777.25;6092541;23;20018;-69
2023/01/15 10:50:14;;;;;;;4.25;0.93;;;;;;;7.54;67.07;99778.03;6089886;23;20011;-69
2023/01/15 10:52:42;;;;;;;3.90;1.10;;;;;;;7.60;66.57;99778.81;6092179;23;20014;-70
2023/01/15 10:55:31;;;;;;;8.60;1.50;;;;;;;7.63;66.69;99772.78;6092087;23;20093;-70
2023/01/15 10:58:32;;;;;;;6.88;1.33;;;;;;;7.65;66.80;99782.22;6091485;23;20018;-69
2023/01/15 11:01:03;;;;;;;7.32;1.20;;;;;;;7.70;66.23;99775.28;6091758;23;20019;-70
2023/01/15 11:03:38;;;;;;;9.82;1.67;;;;;;;7.78;64.96;99752.03;6091208;23;20022;-70
2023/01/15 11:06:07;;;;;;;7.63;1.85;;;;;;;7.78;65.04;99744.31;6093230;23;20026;-69
2023/01/15 11:08:34;;;;;;;6.57;1.73;;;;;;;7.83;66.13;99757.97;6091357;23;20066;-68
2023/01/15 11:11:17;;;;;;;6.20;1.40;;;;;;;7.88;65.49;99751.03;6091846;23;20029;-68
2023/01/15 11:19:35;;;;;;;4.95;0.98;;;;;;;7.89;62.95;99727.03;6090557;23;20035;-69
2023/01/15 11:22:14;;;;;;;10.73;1.17;;;;;;;7.95;64.00;99735.47;6092092;23;20041;-68
2023/01/15 11:24:52;;;;;;;6.28;0.98;;;;;;;7.97;64.10;99749.19;6090772;23;20014;-69
2023/01/15 11:27:31;;;;;;;5.25;1.05;;;;;;;8.00;63.10;99720.84;6091578;23;20022;-69
2023/01/15 11:30:04;;;;;;;5.35;0.95;;;;;;;7.98;62.46;99706.31;6091702;23;20022;-68
2023/01/15 11:32:37;;;;;;;4.07;0.70;;;;;;;8.05;62.49;99717.34;6092614;23;20040;-69
2023/01/15 11:35:22;;;;;;;6.13;1.08;;;;;;;8.01;62.70;99717.38;6093521;23;20014;-68
2023/01/15 11:37:48;;;;;;;6.57;1.30;;;;;;;8.05;63.23;99740.50;6090868;23;20011;-69
2023/01/15 11:40:19;;;;;;;7.22;1.35;;;;;;;8.14;62.38;99718.06;6091319;23;20021;-69
2023/01/15 11:51:08;;;;;;;3.00;1.27;;;;;;;8.38;61.74;99691.94;6091418;23;20089;-68
2023/01/15 11:53:40;;;;;;;8.40;1.00;;;;;;;8.40;61.69;99699.59;6091124;23;20014;-69
2023/01/15 11:56:11;;;;;;;7.82;1.52;;;;;;;8.50;61.79;99701.16;6091700;23;20014;-68
2023/01/15 11:58:46;;;;;;;9.13;1.27;;;;;;;8.76;61.70;99714.44;6091549;23;20010;-68
2023/01/15 12:01:20;;;;;;;4.50;1.67;;;;;;;8.90;61.16;99683.28;6091865;23;20014;-69
2023/01/15 12:03:45;;;;;;;6.47;1.33;;;;;;;8.93;60.49;99675.50;6092269;23;20022;-69
2023/01/15 12:06:13;;;;;;;7.63;1.10;;;;;;;9.00;61.04;99684.78;6092032;23;20026;-69
2023/01/15 12:09:17;;;;;;;6.60;1.30;;;;;;;9.11;60.55;99682.84;6090359;23;20031;-69
2023/01/15 12:11:52;;;;;;;7.40;0.98;;;;;;;9.16;60.51;99682.78;6091920;23;20370;-69
2023/01/15 12:14:35;;;;;;;3.53;1.10;;;;;;;9.02;60.96;99677.91;6091001;23;20553;-69
2023/01/15 12:17:12;;;;;;;6.70;1.30;;;;;;;8.97;60.74;99671.97;6091435;23;20029;-69
2023/01/15 12:20:23;;;;;;;7.43;1.25;;;;;;;8.91;60.90;99678.09;6091455;23;20018;-69
2023/01/15 12:23:02;;;;;;;5.30;1.35;;;;;;;8.84;61.41;99667.94;6088838;23;20349;-69
2023/01/15 12:25:46;;;;;;;6.68;1.23;;;;;;;8.64;61.21;99660.56;6091737;23;20037;-69
2023/01/15 12:28:17;;;;;;;4.82;1.38;;;;;;;8.45;62.15;99674.66;6092330;23;20003;-69
2023/01/15 12:30:51;;;;;;;5.88;1.80;;;;;;;8.33;62.50;99668.00;6092110;23;20018;-69
2023/01/15 12:33:35;;;;;;;7.15;1.60;;;;;;;8.32;62.27;99679.16;6091934;23;20093;-68
2023/01/15 12:36:24;;;;;;;9.45;1.73;;;;;;;8.35;61.90;99679.09;6092423;23;20026;-69
2023/01/15 12:39:04;;;;;;;9.05;2.08;;;;;;;8.40;62.82;99692.75;6093035;23;20043;-71
2023/01/15 12:47:17;;;;;;;4.38;1.10;;;;;;;8.72;62.05;99675.88;6096064;23;20354;-68